NVIDIA ROE 2006-2021 | NVDA

Current and historical return on equity (ROE) values for NVIDIA (NVDA) over the last 10 years. Return on equity can be defined as the amount of net income returned as a percentage of shareholders equity. Return on equity measures a corporation's profitability by revealing how much profit a company generates with the money shareholders have invested.
NVIDIA ROE - Return on Equity Historical Data
Date TTM Net Income Shareholder's Equity Return on Equity
2021-07-31 $7.08B $21.15B 39.25%
2021-04-30 $5.33B $18.77B 32.82%
2021-01-31 $4.33B $16.89B 29.25%
2020-10-31 $3.83B $15.33B 28.05%
2020-07-31 $3.39B $13.91B 26.88%
2020-04-30 $3.32B $13.10B 28.34%
2020-01-31 $2.80B $12.20B 25.74%
2019-10-31 $2.41B $11.21B 23.76%
2019-07-31 $2.74B $10.34B 28.23%
2019-04-30 $3.29B $9.70B 35.28%
2019-01-31 $4.14B $9.34B 46.88%
2018-10-31 $4.69B $9.48B 56.12%
2018-07-31 $4.30B $8.80B 56.73%
2018-04-30 $3.78B $7.72B 55.01%
2018-01-31 $3.05B $7.47B 47.01%
2017-10-31 $2.58B $6.35B 42.66%
2017-07-31 $2.29B $5.97B 39.45%
2017-04-30 $1.97B $6.13B 36.22%
2017-01-31 $1.67B $5.76B 33.72%
2016-10-31 $1.22B $5.32B 26.40%
2016-07-31 $0.92B $4.48B 20.97%
2016-04-30 $0.69B $4.20B 15.89%
2016-01-31 $0.61B $4.47B 13.90%
2015-10-31 $0.60B $4.47B 13.60%
2015-07-31 $0.53B $4.19B 12.12%
2015-04-30 $0.63B $4.56B 14.37%
2015-01-31 $0.63B $4.42B 14.76%
2014-10-31 $0.59B $4.21B 13.66%
2014-07-31 $0.53B $4.31B 12.31%
2014-04-30 $0.50B $4.17B 11.66%
2014-01-31 $0.44B $4.46B 9.90%
2013-10-31 $0.47B $4.32B 10.29%
2013-07-31 $0.56B $4.17B 12.01%
2013-04-30 $0.58B $4.83B 12.32%
2013-01-31 $0.56B $4.83B 12.29%
2012-10-31 $0.50B $4.72B 11.45%
2012-07-31 $0.47B $4.45B 11.22%
2012-04-30 $0.51B $4.29B 12.58%
2012-01-31 $0.58B $4.15B 15.23%
2011-10-31 $0.64B $3.97B 17.83%
2011-07-31 $0.54B $3.69B 16.46%
2011-04-30 $0.25B $3.45B 8.17%
2011-01-31 $0.25B $3.18B 8.68%
2010-10-31 $0.21B $2.90B 7.62%
2010-07-31 $0.24B $2.76B 8.81%
2010-04-30 $0.27B $2.86B 10.67%
2010-01-31 $-0.07B $2.67B -2.78%
2009-10-31 $-0.35B $2.42B -14.75%
2009-07-31 $-0.39B $2.25B -16.60%
2009-04-30 $-0.41B $2.32B -16.55%
2009-01-31 $-0.03B $2.40B -1.17%
2008-10-31 $0.38B $2.49B 14.28%
2008-07-31 $0.55B $2.66B 20.92%
2008-04-30 $0.84B $2.74B 33.41%
2008-01-31 $0.80B $2.62B 33.77%
2007-10-31 $0.71B $2.48B 31.90%
2007-07-31 $0.58B $2.26B 28.07%
2007-04-30 $0.49B $2.10B 25.78%
2007-01-31 $0.45B $2.01B 25.29%
2006-10-31 $0.38B $1.85B 23.25%
2006-07-31 $0.34B $1.66B 22.33%
2006-04-30 $0.33B $1.61B 22.90%
2006-01-31 $0.30B $1.50B 22.43%
2005-10-31 $0.24B $1.35B 18.92%
Sector Industry Market Cap Revenue
Computer and Technology Semiconductor - General $526.136B $16.675B
NVIDIA Corporation is the worldwide leader in graphics processors and media communications devices. The NVIDIA? Tesla? accelerated computing platform gives modern data centers the power to accelerate both artificial intelligence and high-performance computing workloads. NVIDIA? DGX? Systems are built on the new, revolutionary NVIDIA Volta? GPU platform. Powered by NVIDIA? Tesla? GPUs and NVIDIA NVLink?, the HGX reference architecture standardizes the design of data centers accelerating AI in the cloud-from autonomous driving and personalized healthcare to superhuman voice recognition. NVIDIA GPU Cloud (NGC) is a GPU-accelerated platform that runs everywhere. Data scientists and researchers can now rapidly build, train, and deploy neural network models to address some of the most complicated AI challenges. Their researchers operate as a think tank, accelerating advances in product technologies, including AI innovations like facial animations and light transport.
Stock Name Country Market Cap PE Ratio
Intel (INTC) United States $214.940B 10.00
Texas Instruments (TXN) United States $177.801B 26.86
STMicroelectronics (STM) Switzerland $40.778B 26.02
SUMCO CORP ADR (SUOPY) Japan $6.863B 29.20
Screen Holdings (DINRF) Japan $4.487B 22.89
Thk (THKLY) Japan $3.154B 589.00
Amtech Systems (ASYS) United States $0.171B 0.00